createdAt,value
2023-05-05T00:00:40.318Z,7.50
2023-05-05T00:05:41.577Z,7.00
2023-05-05T00:10:41.572Z,7.50
2023-05-05T00:15:41.092Z,7.90
2023-05-05T00:20:40.248Z,7.80
2023-05-05T00:25:40.049Z,7.50
2023-05-05T00:30:42.440Z,7.30
2023-05-05T00:35:40.248Z,7.60
2023-05-05T00:40:40.351Z,7.50
2023-05-05T00:45:43.257Z,7.80
2023-05-05T00:50:42.307Z,7.50
2023-05-05T00:55:40.558Z,7.80
2023-05-05T01:00:40.797Z,7.90
2023-05-05T01:05:54.800Z,8.00
2023-05-05T01:10:44.230Z,7.50
2023-05-05T01:15:47.270Z,8.30
2023-05-05T01:20:48.433Z,8.40
2023-05-05T01:25:50.737Z,8.00
2023-05-05T01:30:59.522Z,8.00
2023-05-05T01:35:46.162Z,8.00
2023-05-05T01:40:44.109Z,8.20
2023-05-05T01:45:42.618Z,6.90
2023-05-05T01:50:41.060Z,6.90
2023-05-05T01:55:41.778Z,7.30
2023-05-05T02:00:41.786Z,7.90
2023-05-05T02:05:42.784Z,6.60
2023-05-05T02:10:39.997Z,6.40
2023-05-05T02:15:41.810Z,7.00
2023-05-05T02:20:40.725Z,6.80
2023-05-05T02:25:47.650Z,7.10
2023-05-05T02:30:41.330Z,6.20
2023-05-05T02:35:42.078Z,7.30
2023-05-05T02:40:42.492Z,6.70
2023-05-05T02:45:40.177Z,6.80
2023-05-05T02:50:40.483Z,7.60
2023-05-05T02:55:49.264Z,6.50
2023-05-05T03:00:46.278Z,6.30
2023-05-05T03:05:44.923Z,6.30
2023-05-05T03:10:45.806Z,6.50
2023-05-05T03:15:44.815Z,6.20
2023-05-05T03:20:41.634Z,6.70
2023-05-05T03:25:42.589Z,6.40
2023-05-05T03:30:40.443Z,6.40
2023-05-05T03:35:41.031Z,6.40
2023-05-05T03:40:44.116Z,6.10
2023-05-05T03:45:39.930Z,6.50
2023-05-05T03:50:40.524Z,6.50
2023-05-05T03:55:39.962Z,6.50
2023-05-05T04:00:39.961Z,7.10
2023-05-05T04:05:41.593Z,7.30
2023-05-05T04:10:39.947Z,7.50
2023-05-05T04:15:43.152Z,7.20
2023-05-05T04:20:40.457Z,8.80
2023-05-05T04:25:40.336Z,9.00
2023-05-05T04:30:40.003Z,9.10
2023-05-05T04:35:41.754Z,9.40
2023-05-05T04:40:41.507Z,9.30
2023-05-05T04:45:39.829Z,8.80
2023-05-05T04:50:40.925Z,8.90
2023-05-05T04:55:34.262Z,8.90
2023-05-05T04:55:41.275Z,8.90
2023-05-05T05:00:39.887Z,8.00
2023-05-05T05:05:40.056Z,8.10
2023-05-05T05:10:39.881Z,7.70
2023-05-05T05:15:40.949Z,7.20
2023-05-05T05:20:41.668Z,8.20
2023-05-05T05:25:39.888Z,7.80
2023-05-05T05:30:40.041Z,6.80
2023-05-05T05:35:40.110Z,6.40
2023-05-05T05:40:39.856Z,7.30
2023-05-05T05:45:40.120Z,6.80
2023-05-05T05:50:39.936Z,9.10
2023-05-05T05:55:42.103Z,8.00
2023-05-05T05:58:55.686Z,5.80
2023-05-05T06:00:42.480Z,5.80
2023-05-05T06:05:39.859Z,5.10
2023-05-05T06:10:40.646Z,5.10
2023-05-05T06:15:41.591Z,5.10
2023-05-05T06:20:39.776Z,4.60
2023-05-05T06:25:39.889Z,3.80
2023-05-05T06:30:39.897Z,3.90
2023-05-05T06:35:40.027Z,4.00
2023-05-05T06:40:39.857Z,4.50
2023-05-05T06:50:39.999Z,4.10
2023-05-05T06:55:43.546Z,3.80
2023-05-05T07:00:40.303Z,4.60
2023-05-05T07:05:39.859Z,4.00
2023-05-05T07:10:39.988Z,4.10
2023-05-05T07:15:45.123Z,4.30
2023-05-05T07:20:40.084Z,4.40
2023-05-05T07:25:39.966Z,5.00
2023-05-05T07:30:40.608Z,4.80
2023-05-05T07:35:40.216Z,4.80
2023-05-05T07:40:39.789Z,4.40
2023-05-05T07:45:40.319Z,6.80
2023-05-05T07:50:40.131Z,5.00
2023-05-05T07:55:41.835Z,5.10
2023-05-05T08:00:40.170Z,4.60
2023-05-05T08:05:39.821Z,4.40
2023-05-05T08:10:41.839Z,6.20
2023-05-05T08:15:41.499Z,3.60
2023-05-05T08:20:39.751Z,4.00
2023-05-05T08:25:39.887Z,3.50
2023-05-05T08:30:39.977Z,3.50
2023-05-05T08:35:40.040Z,4.20
2023-05-05T08:40:40.426Z,3.70
2023-05-05T08:45:41.031Z,3.80
2023-05-05T08:50:42.783Z,4.10
2023-05-05T08:55:48.312Z,3.20
2023-05-05T09:00:41.647Z,3.40
2023-05-05T09:05:41.483Z,3.00
2023-05-05T09:10:40.520Z,3.10
2023-05-05T09:15:41.206Z,2.90
2023-05-05T09:20:40.465Z,4.70
2023-05-05T09:25:41.952Z,5.30
2023-05-05T09:30:41.826Z,3.90
2023-05-05T09:35:48.042Z,4.10
2023-05-05T09:40:46.666Z,3.70
2023-05-05T09:45:39.758Z,5.50
2023-05-05T09:50:42.802Z,5.70
2023-05-05T09:55:42.132Z,2.90
2023-05-05T10:00:39.927Z,2.30
2023-05-05T10:05:49.441Z,2.80
2023-05-05T10:10:46.694Z,2.70
2023-05-05T10:15:43.182Z,2.60
2023-05-05T10:20:41.346Z,2.20
2023-05-05T10:25:45.611Z,2.60
2023-05-05T10:30:43.251Z,2.60
2023-05-05T10:35:42.587Z,2.50
2023-05-05T10:40:44.409Z,2.50
2023-05-05T10:45:40.175Z,2.80
2023-05-05T10:50:48.116Z,2.30
2023-05-05T10:55:49.311Z,2.00
2023-05-05T11:00:50.853Z,2.10
2023-05-05T11:05:59.612Z,2.80
2023-05-05T11:10:43.494Z,2.30
2023-05-05T11:15:40.536Z,2.30
2023-05-05T11:20:59.534Z,2.40
2023-05-05T11:25:47.074Z,2.40
2023-05-05T11:30:59.961Z,2.20
2023-05-05T11:35:53.008Z,2.40
2023-05-05T11:40:43.646Z,2.70
2023-05-05T11:45:39.656Z,2.50
2023-05-05T11:50:40.060Z,2.10
2023-05-05T11:55:39.707Z,2.40
2023-05-05T12:00:39.698Z,2.70
2023-05-05T12:05:40.148Z,2.70
2023-05-05T12:10:40.002Z,2.70
2023-05-05T12:15:39.671Z,2.30
2023-05-05T12:20:40.777Z,2.30
2023-05-05T12:25:39.904Z,2.20
2023-05-05T12:30:39.715Z,2.60
2023-05-05T12:35:41.098Z,2.20
2023-05-05T12:40:48.392Z,2.50
2023-05-05T12:45:39.800Z,2.40
2023-05-05T12:50:39.890Z,2.30
2023-05-05T12:55:42.259Z,2.60
2023-05-05T13:00:39.691Z,2.20
2023-05-05T13:05:40.256Z,2.40
2023-05-05T13:10:57.272Z,2.80
2023-05-05T13:15:39.607Z,2.90
2023-05-05T13:20:39.946Z,2.50
2023-05-05T13:25:39.599Z,3.00
2023-05-05T13:30:40.907Z,2.50
2023-05-05T13:35:40.281Z,2.20
2023-05-05T13:40:39.684Z,2.40
2023-05-05T13:45:41.652Z,2.60
2023-05-05T13:50:39.939Z,2.30
2023-05-05T13:55:40.425Z,2.50
2023-05-05T14:00:39.599Z,2.30
2023-05-05T14:05:41.670Z,2.10
2023-05-05T14:10:39.636Z,14.20
2023-05-05T14:15:39.791Z,2.70
2023-05-05T14:20:40.296Z,2.50
2023-05-05T14:25:39.702Z,2.20
2023-05-05T14:30:39.872Z,2.50
2023-05-05T14:35:39.806Z,2.10
2023-05-05T14:40:39.642Z,2.20
2023-05-05T14:45:40.739Z,2.40
2023-05-05T14:50:41.454Z,2.00
2023-05-05T14:55:39.705Z,2.00
2023-05-05T15:00:39.644Z,1.90
2023-05-05T15:05:39.910Z,1.80
2023-05-05T15:10:39.704Z,1.90
2023-05-05T15:15:40.271Z,2.10
2023-05-05T15:20:40.059Z,3.90
2023-05-05T15:25:39.760Z,2.20
2023-05-05T15:30:39.495Z,2.10
2023-05-05T15:35:39.725Z,2.00
2023-05-05T15:40:39.498Z,1.90
2023-05-05T15:45:40.653Z,2.10
2023-05-05T15:50:39.942Z,2.50
2023-05-05T15:55:41.768Z,2.30
2023-05-05T16:00:40.613Z,2.90
2023-05-05T16:05:40.760Z,2.50
2023-05-05T16:10:39.781Z,2.40
2023-05-05T16:15:39.853Z,2.30
2023-05-05T16:20:40.328Z,2.30
2023-05-05T16:25:39.513Z,2.10
2023-05-05T16:30:41.728Z,2.40
2023-05-05T16:35:42.561Z,2.60
2023-05-05T16:40:39.889Z,2.50
2023-05-05T16:45:39.574Z,3.40
2023-05-05T16:50:39.850Z,2.70
2023-05-05T16:55:41.512Z,2.10
2023-05-05T17:00:39.587Z,1.90
2023-05-05T17:05:39.797Z,2.60
2023-05-05T17:10:40.384Z,2.70
2023-05-05T17:15:40.457Z,2.30
2023-05-05T17:20:39.714Z,4.20
2023-05-05T17:25:39.441Z,9.90
2023-05-05T17:30:39.818Z,3.30
2023-05-05T17:35:39.706Z,3.20
2023-05-05T17:40:39.498Z,3.30
2023-05-05T17:45:41.228Z,3.40
2023-05-05T17:50:40.705Z,3.00
2023-05-05T17:55:43.649Z,3.20
2023-05-05T18:00:39.418Z,3.50
2023-05-05T18:05:39.861Z,4.00
2023-05-05T18:10:39.487Z,3.60
2023-05-05T18:15:39.532Z,3.90
2023-05-05T18:20:40.036Z,4.60
2023-05-05T18:25:39.393Z,4.80
2023-05-05T18:30:39.525Z,4.90
2023-05-05T18:35:39.637Z,4.60
2023-05-05T18:40:39.452Z,5.20
2023-05-05T18:45:39.467Z,5.00
2023-05-05T18:50:40.225Z,5.20
2023-05-05T18:55:39.421Z,5.10
2023-05-05T19:00:39.480Z,5.60
2023-05-05T19:05:39.848Z,5.80
2023-05-05T19:10:39.607Z,5.90
2023-05-05T19:15:39.467Z,5.10
2023-05-05T19:20:41.885Z,6.80
2023-05-05T19:25:39.425Z,6.90
2023-05-05T19:30:39.712Z,11.00
2023-05-05T19:35:39.826Z,9.30
2023-05-05T19:40:39.473Z,8.70
2023-05-05T19:45:39.631Z,62.30
2023-05-05T19:50:39.610Z,28.50
2023-05-05T19:55:39.393Z,17.30
2023-05-05T20:00:39.361Z,22.80
2023-05-05T20:05:40.347Z,14.00
2023-05-05T20:10:39.375Z,16.30
2023-05-05T20:15:39.584Z,22.10
2023-05-05T20:20:39.788Z,10.20
2023-05-05T20:25:39.440Z,9.20
2023-05-05T20:30:39.612Z,13.50
2023-05-05T20:35:39.610Z,11.40
2023-05-05T20:40:39.868Z,21.70
2023-05-05T20:45:39.296Z,11.50
2023-05-05T20:50:40.775Z,9.10
2023-05-05T20:55:39.750Z,7.60
2023-05-05T21:00:39.784Z,8.10
2023-05-05T21:05:40.337Z,6.00
2023-05-05T21:10:39.634Z,6.30
2023-05-05T21:15:39.443Z,7.30
2023-05-05T21:20:40.173Z,6.70
2023-05-05T21:25:39.412Z,5.80
2023-05-05T21:30:39.440Z,6.70
2023-05-05T21:35:39.645Z,6.70
2023-05-05T21:40:39.314Z,7.40
2023-05-05T21:45:39.558Z,6.10
2023-05-05T21:50:39.498Z,6.20
2023-05-05T21:55:39.302Z,6.30
2023-05-05T22:00:41.268Z,6.40
2023-05-05T22:05:39.696Z,5.80
2023-05-05T22:10:39.397Z,5.20
2023-05-05T22:15:46.539Z,6.00
2023-05-05T22:20:39.798Z,5.80
2023-05-05T22:25:39.299Z,5.80
2023-05-05T22:30:39.625Z,5.40
2023-05-05T22:35:39.822Z,5.60
2023-05-05T22:40:39.438Z,6.10
2023-05-05T22:45:39.799Z,6.40
2023-05-05T22:50:40.382Z,6.60
2023-05-05T22:55:39.311Z,6.70
2023-05-05T23:00:41.267Z,6.10
2023-05-05T23:05:39.201Z,5.60
2023-05-05T23:10:39.306Z,6.60
2023-05-05T23:15:41.361Z,6.20
2023-05-05T23:20:40.952Z,6.40
2023-05-05T23:25:39.189Z,6.60
2023-05-05T23:30:39.617Z,6.20
2023-05-05T23:35:44.146Z,6.20
2023-05-05T23:40:39.211Z,6.50
2023-05-05T23:45:39.672Z,5.80
2023-05-05T23:50:39.264Z,5.80
2023-05-05T23:55:39.340Z,5.30
